Time;durP1;ratioP1;P1;durP2;ratioP2;P2;SDS_P1;SDS_P2;PMS_P1;PMS_P2;Temp;Humidity;BMP_temperature;BMP_pressure;BME280_temperature;BME280_humidity;BME280_pressure;Samples;Min_cycle;Max_cycle;Signal;HPM_P1;HPM_P2
2022/03/23 00:02:59;;;;;;;143.07;52.73;;;;;;;5.81;52.85;102371.28;5065985;57;1146670;-70
2022/03/23 00:08:05;;;;;;;147.02;52.50;;;;;;;5.73;52.57;102378.08;5063677;57;1140742;-70
2022/03/23 00:13:12;;;;;;;114.37;45.45;;;;;;;5.68;53.08;102374.70;5064841;57;1140921;-70
2022/03/23 00:18:18;;;;;;;120.20;46.83;;;;;;;5.54;53.33;102368.97;5061697;56;1140759;-70
2022/03/23 00:23:24;;;;;;;151.53;54.30;;;;;;;5.49;53.23;102370.44;5065485;57;1140860;-70
2022/03/23 00:28:29;;;;;;;125.20;49.37;;;;;;;5.48;53.76;102362.59;5065306;57;1140803;-70
2022/03/23 00:33:36;;;;;;;131.23;49.40;;;;;;;5.45;54.05;102355.66;5063093;57;1140881;-70
2022/03/23 00:38:43;;;;;;;108.60;43.53;;;;;;;5.37;54.75;102357.61;5067005;57;1140801;-70
2022/03/23 00:43:50;;;;;;;103.83;44.17;;;;;;;5.23;54.12;102352.73;5064692;57;1141153;-71
2022/03/23 00:48:56;;;;;;;116.47;49.18;;;;;;;5.01;54.25;102352.89;5069353;56;1141121;-71
2022/03/23 00:54:04;;;;;;;121.28;49.58;;;;;;;4.99;54.81;102355.14;5150285;55;1141048;-70
2022/03/23 00:59:11;;;;;;;125.07;47.50;;;;;;;5.00;55.36;102348.99;5150828;55;1140987;-70
2022/03/23 01:04:17;;;;;;;101.43;44.90;;;;;;;5.01;55.94;102341.09;5149524;56;1141100;-70
2022/03/23 01:09:24;;;;;;;87.53;40.83;;;;;;;4.97;55.54;102338.58;5151285;56;1141145;-70
2022/03/23 01:14:30;;;;;;;94.80;40.37;;;;;;;4.93;55.47;102331.23;5151948;56;1138622;-70
2022/03/23 01:19:36;;;;;;;68.20;35.43;;;;;;;4.89;55.48;102333.51;5151381;55;1138823;-70
2022/03/23 01:24:44;;;;;;;76.20;34.17;;;;;;;4.79;55.24;102332.03;5151790;55;1139037;-70
2022/03/23 01:29:50;;;;;;;81.93;36.53;;;;;;;4.62;55.48;102326.33;5151751;55;1139038;-70
2022/03/23 01:34:55;;;;;;;78.50;37.00;;;;;;;4.55;56.05;102325.63;5152172;55;1138855;-70
2022/03/23 01:40:03;;;;;;;85.87;35.10;;;;;;;4.55;56.02;102315.16;5152052;55;1138839;-70
2022/03/23 01:45:11;;;;;;;77.25;35.65;;;;;;;4.48;55.85;102315.73;5150470;55;1138870;-70
2022/03/23 01:50:17;;;;;;;73.78;35.80;;;;;;;4.40;56.69;102305.03;5148753;55;1138968;-70
2022/03/23 01:55:24;;;;;;;72.30;35.97;;;;;;;4.34;57.03;102303.86;5150313;56;1139085;-71
2022/03/23 02:00:30;;;;;;;90.57;39.03;;;;;;;4.29;56.76;102305.27;5114730;56;1138945;-70
2022/03/23 02:05:37;;;;;;;85.17;40.13;;;;;;;4.27;56.93;102303.16;5151538;56;1138721;-70
2022/03/23 02:10:44;;;;;;;73.90;36.97;;;;;;;4.27;57.31;102301.84;5152320;56;1138744;-70
2022/03/23 02:15:52;;;;;;;84.10;42.10;;;;;;;4.13;57.13;102298.20;5149990;56;1138814;-70
2022/03/23 02:20:58;;;;;;;85.20;41.28;;;;;;;4.07;57.66;102297.05;5138243;56;1138824;-71
2022/03/23 02:26:07;;;;;;;93.78;40.78;;;;;;;4.11;58.17;102293.48;5150099;55;1138920;-70
2022/03/23 02:31:13;;;;;;;84.47;38.58;;;;;;;4.14;58.25;102295.14;5151374;56;1138793;-70
2022/03/23 02:36:19;;;;;;;87.53;41.53;;;;;;;4.06;58.01;102294.46;5152559;56;1138639;-70
2022/03/23 02:41:25;;;;;;;86.40;38.87;;;;;;;3.90;58.45;102293.94;5150746;56;1138889;-70
2022/03/23 02:46:35;;;;;;;78.63;38.80;;;;;;;3.82;58.70;102286.68;5151992;56;1139008;-70
2022/03/23 02:51:39;;;;;;;85.57;39.77;;;;;;;3.71;58.97;102279.52;5086781;56;1138783;-70
2022/03/23 03:02:42;;;;;;;106.30;49.50;;;;;;;3.70;58.95;102269.94;5064558;57;1138954;-71
2022/03/23 03:13:10;;;;;;;90.70;43.67;;;;;;;3.56;59.42;102275.91;5065342;57;1140793;-70
2022/03/23 03:18:17;;;;;;;89.07;42.00;;;;;;;3.48;59.66;102277.38;5065586;57;1138781;-70
2022/03/23 03:23:23;;;;;;;97.57;46.87;;;;;;;3.52;60.28;102274.66;5065738;57;1138689;-71
2022/03/23 03:28:30;;;;;;;82.47;40.17;;;;;;;3.54;60.21;102275.48;5064727;57;1138669;-70
2022/03/23 03:33:37;;;;;;;84.73;41.87;;;;;;;3.53;60.45;102276.38;5063260;57;1138886;-70
2022/03/23 03:38:45;;;;;;;91.10;42.93;;;;;;;3.45;60.55;102272.20;5113671;56;1138674;-70
2022/03/23 03:43:51;;;;;;;87.77;43.07;;;;;;;3.35;61.03;102264.14;5151835;55;1138721;-70
2022/03/23 03:48:57;;;;;;;92.70;41.83;;;;;;;3.34;61.06;102270.26;5149158;55;1138609;-70
2022/03/23 03:54:05;;;;;;;85.23;41.03;;;;;;;3.35;61.50;102265.45;5144149;55;1138779;-70
2022/03/23 03:59:10;;;;;;;90.42;41.85;;;;;;;3.36;61.02;102268.48;5151392;55;1138666;-70
2022/03/23 04:04:16;;;;;;;87.88;41.13;;;;;;;3.35;60.96;102270.23;5151354;55;1138680;-70
2022/03/23 04:09:22;;;;;;;100.70;45.63;;;;;;;3.35;61.30;102268.06;5169459;55;1138664;-70
2022/03/23 04:14:29;;;;;;;91.30;43.68;;;;;;;3.31;61.07;102271.18;5150204;55;1140835;-70
2022/03/23 04:19:34;;;;;;;86.80;41.42;;;;;;;3.24;60.83;102273.48;5152105;55;1138791;-70
2022/03/23 04:24:40;;;;;;;100.30;45.50;;;;;;;3.07;60.86;102272.48;5145856;55;1139001;-70
2022/03/23 04:29:47;;;;;;;95.37;45.47;;;;;;;3.03;61.58;102271.29;5144538;55;1141055;-69
2022/03/23 04:34:53;;;;;;;107.17;46.88;;;;;;;3.00;61.69;102270.89;5150988;55;1138930;-69
2022/03/23 04:40:00;;;;;;;111.37;45.03;;;;;;;2.98;61.78;102271.36;5151349;55;1140902;-70
2022/03/23 04:45:07;;;;;;;99.30;46.73;;;;;;;2.90;61.31;102269.34;5148760;55;1140927;-69
2022/03/23 04:50:14;;;;;;;100.35;45.60;;;;;;;2.85;61.97;102267.70;5133341;55;1138802;-69
2022/03/23 04:55:21;;;;;;;116.50;42.70;;;;;;;2.70;61.76;102277.52;5134430;55;1141057;-69
2022/03/23 05:00:26;;;;;;;123.15;48.63;;;;;;;2.34;61.93;102277.66;5125261;55;1140964;-69
2022/03/23 05:05:32;;;;;;;104.57;47.47;;;;;;;2.37;62.98;102280.67;5126282;55;1140974;-69
2022/03/23 05:10:38;;;;;;;101.53;46.43;;;;;;;2.46;63.41;102274.85;5133137;55;1140903;-70
2022/03/23 05:15:45;;;;;;;109.23;46.17;;;;;;;2.60;63.63;102269.88;5132346;55;1141132;-69
2022/03/23 05:20:50;;;;;;;186.27;75.63;;;;;;;2.67;63.68;102267.12;5146379;55;1141173;-70
2022/03/23 05:25:56;;;;;;;187.17;80.47;;;;;;;2.69;63.43;102267.96;5146282;55;1140768;-69
2022/03/23 05:31:02;;;;;;;162.57;65.45;;;;;;;2.65;63.44;102268.03;5115918;55;1141052;-70
2022/03/23 05:36:09;;;;;;;149.47;57.45;;;;;;;2.58;63.59;102272.95;5143189;55;1141064;-70
2022/03/23 05:41:14;;;;;;;189.32;69.85;;;;;;;2.60;64.67;102262.05;5154877;55;1140843;-69
2022/03/23 05:46:20;;;;;;;146.10;64.63;;;;;;;2.65;65.05;102258.44;5146230;54;1140998;-69
2022/03/23 05:51:26;;;;;;;137.43;60.70;;;;;;;2.71;65.21;102254.43;5144531;55;1140776;-69
2022/03/23 05:56:32;;;;;;;169.67;66.47;;;;;;;2.88;65.17;102265.90;5152222;55;1140868;-69
2022/03/23 06:01:37;;;;;;;178.87;72.08;;;;;;;2.79;64.95;102262.98;5151220;55;1141177;-69
2022/03/23 06:06:43;;;;;;;160.13;65.20;;;;;;;2.99;66.62;102259.16;5151892;55;1141328;-70
2022/03/23 06:11:49;;;;;;;152.73;65.17;;;;;;;3.35;67.20;102255.85;5151317;55;1140844;-70
2022/03/23 06:16:55;;;;;;;175.30;73.07;;;;;;;3.65;66.22;102245.20;5151363;55;1140897;-69
2022/03/23 06:22:01;;;;;;;197.37;79.83;;;;;;;3.65;66.22;102245.20;5149175;54;1141157;-70
2022/03/23 06:27:07;;;;;;;196.17;83.53;;;;;;;3.74;66.40;102257.21;5150408;55;1141078;-69
2022/03/23 06:32:14;;;;;;;182.40;77.80;;;;;;;3.90;66.71;102252.06;5151864;55;1141017;-69
2022/03/23 06:37:20;;;;;;;163.28;76.45;;;;;;;4.14;67.03;102263.27;5151806;55;1141046;-69
2022/03/23 06:42:27;;;;;;;170.00;82.57;;;;;;;4.47;67.26;102265.54;5152038;55;1141321;-69
2022/03/23 06:47:33;;;;;;;161.07;79.77;;;;;;;4.70;67.07;102264.13;5151206;55;1140902;-69
2022/03/23 06:52:40;;;;;;;181.63;84.83;;;;;;;4.99;67.21;102262.05;5141817;54;1140998;-69
2022/03/23 06:57:45;;;;;;;161.53;75.27;;;;;;;5.30;67.26;102259.87;5139154;55;1140915;-69
2022/03/23 07:02:52;;;;;;;147.30;70.50;;;;;;;5.64;67.12;102261.53;5135995;54;1140957;-69
2022/03/23 07:13:20;;;;;;;;;;;;;;;6.02;67.07;102270.91;5087074;56;1140833;-70
2022/03/23 07:18:27;;;;;;;106.20;51.63;;;;;;;6.28;66.14;102263.52;5069430;56;971923;-69
2022/03/23 07:23:35;;;;;;;102.00;50.97;;;;;;;6.62;65.16;102263.28;5058623;56;1138681;-68
2022/03/23 07:28:40;;;;;;;97.87;48.63;;;;;;;7.08;65.44;102253.81;5050793;56;1141881;-69
2022/03/23 07:33:46;;;;;;;93.90;48.47;;;;;;;7.51;63.21;102252.66;5046591;56;1138703;-70
2022/03/23 07:38:53;;;;;;;84.70;41.57;;;;;;;7.84;61.87;102253.16;5067049;56;1138745;-70
2022/03/23 07:43:58;;;;;;;74.63;38.33;;;;;;;8.19;59.58;102253.10;5142024;56;1138948;-71
2022/03/23 07:49:05;;;;;;;85.30;39.27;;;;;;;8.48;58.18;102246.67;5150035;56;1138989;-72
2022/03/23 07:54:10;;;;;;;80.45;38.30;;;;;;;8.74;56.35;102247.75;5130874;56;1138845;-70
2022/03/23 07:59:16;;;;;;;70.52;36.83;;;;;;;9.00;55.52;102241.38;5152243;56;1138730;-70
2022/03/23 08:04:22;;;;;;;63.95;33.60;;;;;;;9.29;54.78;102236.59;5149564;56;1138741;-72
2022/03/23 08:09:29;;;;;;;64.33;35.60;;;;;;;9.58;54.35;102231.30;5151269;56;1138673;-72
2022/03/23 08:14:35;;;;;;;70.70;37.57;;;;;;;9.91;54.07;102228.88;5152170;56;1138666;-70
2022/03/23 08:19:41;;;;;;;79.03;39.67;;;;;;;10.25;54.03;102228.97;5151650;56;1141217;-70
2022/03/23 08:24:47;;;;;;;76.90;37.33;;;;;;;10.56;53.74;102223.02;5150186;56;1142849;-71
2022/03/23 08:29:53;;;;;;;68.50;36.07;;;;;;;10.92;53.45;102219.81;5149271;56;1142861;-71
2022/03/23 08:34:58;;;;;;;74.80;37.17;;;;;;;11.24;51.31;102219.45;5150617;56;1142850;-70
2022/03/23 08:40:05;;;;;;;68.10;35.13;;;;;;;11.55;51.75;102214.68;5151162;56;1142973;-70
2022/03/23 08:45:12;;;;;;;75.45;36.70;;;;;;;11.90;50.55;102229.14;5149886;56;1142843;-70
2022/03/23 08:50:18;;;;;;;66.42;35.55;;;;;;;12.22;50.47;102224.67;5106180;56;1142922;-70
2022/03/23 08:55:25;;;;;;;66.27;36.47;;;;;;;12.56;49.89;102222.22;5064600;56;1142912;-70
2022/03/23 09:00:31;;;;;;;53.33;29.63;;;;;;;12.85;49.86;102209.87;5147942;56;1142930;-70
2022/03/23 09:05:37;;;;;;;64.87;36.33;;;;;;;13.07;47.51;102206.78;5136062;56;1142920;-70
2022/03/23 09:10:42;;;;;;;65.12;34.33;;;;;;;13.25;46.83;102214.98;5152025;55;1142831;-70
2022/03/23 09:15:48;;;;;;;60.43;30.33;;;;;;;13.82;45.44;102190.50;5134705;56;1142944;-71
2022/03/23 09:20:55;;;;;;;48.50;25.50;;;;;;;13.82;45.44;102190.50;5149837;56;1143183;-70
2022/03/23 09:26:01;;;;;;;59.87;26.80;;;;;;;14.15;43.23;102185.27;5111116;56;1143108;-70
2022/03/23 09:31:07;;;;;;;53.60;26.87;;;;;;;14.43;43.72;102186.49;5136803;55;1143104;-71
2022/03/23 09:41:35;;;;;;;;;;;;;;;14.97;42.01;102185.84;5152739;56;1143137;-70
2022/03/23 09:46:43;;;;;;;48.23;25.70;;;;;;;15.11;39.58;102177.77;5169069;56;976052;-71
2022/03/23 09:51:52;;;;;;;38.20;24.57;;;;;;;15.31;39.43;102172.81;5152677;55;1140999;-70
2022/03/23 09:56:56;;;;;;;42.70;21.77;;;;;;;15.54;40.75;102167.19;5142032;55;1142936;-71
2022/03/23 10:02:26;;;;;;;33.77;19.63;;;;;;;15.76;37.82;102164.19;5148369;55;1143080;-71
2022/03/23 10:07:55;;;;;;;38.33;22.33;;;;;;;15.97;38.18;102159.10;5150152;56;1142899;-71
2022/03/23 10:13:55;;;;;;;29.23;17.43;;;;;;;16.21;38.09;102163.08;5151597;56;1143130;-71
2022/03/23 10:19:03;;;;;;;28.03;16.67;;;;;;;16.37;35.90;102151.61;5146464;56;1142796;-70
2022/03/23 10:24:14;;;;;;;23.77;14.53;;;;;;;16.59;35.52;102141.48;5149812;55;1143003;-70
2022/03/23 10:29:27;;;;;;;19.82;12.45;;;;;;;16.74;35.01;102135.46;5151460;55;1142812;-70
2022/03/23 10:34:48;;;;;;;25.93;13.10;;;;;;;16.79;34.95;102139.97;5152012;55;1142920;-70
2022/03/23 10:40:01;;;;;;;22.70;14.63;;;;;;;16.91;33.66;102128.80;5150898;55;1142706;-71
2022/03/23 10:45:12;;;;;;;24.70;14.40;;;;;;;17.16;34.95;102124.05;5140913;55;1143057;-72
2022/03/23 10:50:26;;;;;;;28.15;15.25;;;;;;;17.41;34.84;102114.92;5151311;55;1143054;-71
2022/03/23 10:55:40;;;;;;;25.17;15.23;;;;;;;17.67;34.05;102114.16;5150321;55;1142881;-71
2022/03/23 11:00:48;;;;;;;23.20;13.97;;;;;;;17.89;33.26;102103.36;5171660;55;1142994;-72
2022/03/23 11:05:53;;;;;;;23.73;14.63;;;;;;;18.10;32.51;102099.88;5145608;55;1143235;-71
2022/03/23 11:16:35;;;;;;;23.53;15.43;;;;;;;18.36;29.08;102086.45;5150790;56;1143012;-71
2022/03/23 11:22:05;;;;;;;23.27;16.43;;;;;;;18.43;31.16;102076.06;5149841;55;1143015;-71
2022/03/23 11:27:18;;;;;;;18.20;13.80;;;;;;;18.58;30.19;102058.20;5151614;55;1142910;-71
2022/03/23 11:32:28;;;;;;;21.17;14.23;;;;;;;18.72;28.23;102061.02;5151617;55;1142901;-71
2022/03/23 11:37:35;;;;;;;14.80;10.83;;;;;;;18.83;29.83;102060.92;5151297;54;1143303;-71
2022/03/23 11:42:44;;;;;;;18.20;13.00;;;;;;;18.97;27.68;102048.48;5151894;55;1142903;-70
2022/03/23 11:48:22;;;;;;;26.00;14.10;;;;;;;19.07;29.47;102045.00;5150578;54;1143322;-70
2022/03/23 11:54:01;;;;;;;17.53;11.63;;;;;;;19.07;26.34;102040.48;5151057;54;1142902;-71
2022/03/23 11:59:28;;;;;;;14.73;11.70;;;;;;;19.04;28.64;102026.49;5145713;55;1143026;-70
2022/03/23 12:04:34;;;;;;;22.33;12.77;;;;;;;19.24;27.14;102026.41;5133868;56;1142850;-70
2022/03/23 12:09:44;;;;;;;20.13;7.63;;;;;;;19.43;28.32;102016.66;5149603;55;1142905;-70
2022/03/23 12:14:50;;;;;;;5.63;4.57;;;;;;;19.54;26.07;102000.48;5152418;55;1141001;-71
2022/03/23 12:20:08;;;;;;;8.25;5.83;;;;;;;19.73;24.37;101997.77;5151038;56;1138815;-70
2022/03/23 12:25:24;;;;;;;12.42;6.08;;;;;;;19.90;21.07;101993.52;5151209;55;1139025;-70
2022/03/23 12:30:41;;;;;;;11.03;6.12;;;;;;;19.85;22.67;101988.59;5143774;55;1140876;-71
2022/03/23 12:35:48;;;;;;;9.15;5.90;;;;;;;19.89;21.37;101978.39;5151212;55;1140785;-71
2022/03/23 12:40:58;;;;;;;10.25;6.80;;;;;;;19.99;21.33;101971.19;5150472;54;1138688;-70
2022/03/23 12:46:05;;;;;;;17.98;7.53;;;;;;;20.16;21.53;101960.19;5151365;54;1140812;-70
2022/03/23 13:02:31;;;;;;;11.83;8.28;;;;;;;20.56;20.13;101947.81;5141947;55;1142966;-71
2022/03/23 13:07:40;;;;;;;14.33;6.80;;;;;;;20.48;19.82;101937.78;5148837;55;1140788;-71
2022/03/23 13:12:45;;;;;;;9.78;6.26;;;;;;;20.57;18.21;101942.28;5150444;55;1140864;-73
2022/03/23 13:17:51;;;;;;;14.07;9.83;;;;;;;20.65;19.74;101934.80;5151263;55;1138916;-71
2022/03/23 13:22:57;;;;;;;15.13;11.22;;;;;;;20.64;19.06;101932.61;5065958;56;1140792;-70
2022/03/23 13:28:06;;;;;;;21.48;13.15;;;;;;;20.46;19.84;101933.58;5065299;55;1142976;-71
2022/03/23 13:33:17;;;;;;;21.27;13.85;;;;;;;20.41;20.18;101934.02;5080681;55;1142925;-71
2022/03/23 13:38:22;;;;;;;27.40;13.28;;;;;;;20.36;20.94;101930.92;5148625;54;1143108;-71
2022/03/23 13:43:32;;;;;;;20.65;13.35;;;;;;;20.48;21.41;101923.50;5150309;54;1142946;-71
2022/03/23 13:48:39;;;;;;;28.20;15.23;;;;;;;20.53;21.38;101913.16;5152090;54;1143080;-71
2022/03/23 13:53:48;;;;;;;15.03;11.73;;;;;;;20.56;22.01;101902.11;5152238;55;1142990;-70
2022/03/23 13:58:54;;;;;;;26.30;13.30;;;;;;;20.72;21.12;101907.67;5150806;54;1143007;-70
2022/03/23 14:04:05;;;;;;;21.62;12.70;;;;;;;20.65;22.41;101901.19;5152863;55;1142904;-70
2022/03/23 14:09:14;;;;;;;16.60;12.43;;;;;;;20.73;21.84;101889.70;5140220;55;1142987;-72
2022/03/23 14:14:32;;;;;;;22.48;14.55;;;;;;;20.67;20.47;101885.77;5152449;56;1142857;-70
2022/03/23 14:19:41;;;;;;;18.12;13.38;;;;;;;20.55;21.85;101882.95;5151456;56;1143034;-70
2022/03/23 14:24:48;;;;;;;22.62;14.38;;;;;;;20.54;21.73;101875.88;5152518;56;1142914;-71
2022/03/23 14:30:09;;;;;;;25.48;15.03;;;;;;;20.55;22.62;101870.35;5150034;56;1142793;-70
2022/03/23 14:35:40;;;;;;;24.80;14.06;;;;;;;20.65;23.02;101864.91;5151634;54;1142902;-71
2022/03/23 14:41:00;;;;;;;24.63;14.98;;;;;;;20.69;22.65;101856.39;5149425;55;1142820;-71
2022/03/23 14:46:29;;;;;;;20.75;12.37;;;;;;;20.75;23.09;101854.10;5151799;55;1142843;-70
2022/03/23 14:51:37;;;;;;;22.07;15.00;;;;;;;20.90;23.03;101855.26;5151216;56;1142898;-71
2022/03/23 14:56:48;;;;;;;22.42;12.45;;;;;;;20.93;23.17;101842.85;5150671;55;1142924;-70
2022/03/23 15:01:57;;;;;;;176.07;73.72;;;;;;;20.94;22.19;101839.98;5149349;55;1142983;-70
2022/03/23 15:17:45;;;;;;;16.75;11.57;;;;;;;20.73;23.34;101842.16;5150880;55;1142861;-70
2022/03/23 15:22:51;;;;;;;81.32;29.95;;;;;;;20.60;22.11;101841.19;5151444;55;1142944;-70
2022/03/23 15:27:56;;;;;;;21.35;14.98;;;;;;;20.56;22.90;101838.94;5147839;55;1143194;-71
2022/03/23 15:33:02;;;;;;;42.50;22.73;;;;;;;20.52;23.05;101842.42;5151867;55;1142873;-70
2022/03/23 15:38:10;;;;;;;36.08;21.37;;;;;;;20.44;24.43;101840.16;5151517;55;1143032;-70
2022/03/23 15:43:16;;;;;;;28.57;20.20;;;;;;;20.48;24.96;101838.34;5150674;55;1142881;-70
2022/03/23 15:48:24;;;;;;;29.05;18.67;;;;;;;20.44;25.16;101839.66;5148882;55;1142993;-70
2022/03/23 15:53:28;;;;;;;36.83;22.75;;;;;;;20.33;24.93;101842.01;5146226;55;1142949;-71
2022/03/23 15:58:35;;;;;;;38.95;23.35;;;;;;;20.21;25.60;101843.70;5099547;55;1143009;-70
2022/03/23 16:03:42;;;;;;;43.98;26.42;;;;;;;20.18;25.96;101846.19;5065221;56;1143052;-70
2022/03/23 16:08:47;;;;;;;61.83;33.73;;;;;;;20.07;26.28;101841.52;5064429;55;1142913;-70
2022/03/23 16:13:56;;;;;;;51.10;26.35;;;;;;;19.97;26.15;101841.08;5065808;56;1143228;-71
2022/03/23 16:19:02;;;;;;;52.30;24.95;;;;;;;19.72;26.43;101845.73;5126671;55;1142867;-70
2022/03/23 16:24:09;;;;;;;50.60;23.83;;;;;;;19.59;26.81;101836.67;5131483;55;1142937;-71
2022/03/23 16:29:15;;;;;;;68.67;27.95;;;;;;;19.49;26.98;101841.23;5147198;55;1152460;-72
2022/03/23 16:34:21;;;;;;;74.77;33.05;;;;;;;19.35;27.15;101846.17;5065910;55;1142910;-71
2022/03/23 16:39:26;;;;;;;91.92;31.42;;;;;;;19.14;27.27;101843.64;5045222;56;1142993;-71
2022/03/23 16:44:34;;;;;;;93.78;31.70;;;;;;;19.04;27.58;101844.15;5065803;56;1143003;-70
2022/03/23 16:49:40;;;;;;;46.65;25.92;;;;;;;18.80;27.60;101853.44;5045899;55;1143029;-71
2022/03/23 16:54:46;;;;;;;52.58;24.72;;;;;;;18.55;27.80;101855.28;5073084;55;1142918;-70
2022/03/23 16:59:52;;;;;;;72.30;35.52;;;;;;;18.28;27.97;101853.25;5096200;56;1143024;-71
2022/03/23 17:15:45;;;;;;;117.00;57.83;;;;;;;17.92;29.05;101852.83;5141098;55;1143089;-71
2022/03/23 17:20:50;;;;;;;164.70;67.93;;;;;;;17.92;29.29;101860.00;5183992;55;1144898;-71
2022/03/23 17:25:57;;;;;;;142.67;58.77;;;;;;;17.87;29.50;101855.05;5100014;55;1144949;-71
2022/03/23 17:31:04;;;;;;;201.90;82.87;;;;;;;17.72;29.71;101864.41;5134630;55;1144997;-71
2022/03/23 17:36:10;;;;;;;249.47;96.53;;;;;;;17.57;30.14;101873.72;5151048;55;1145095;-71
2022/03/23 17:41:17;;;;;;;285.50;91.78;;;;;;;17.31;30.48;101868.41;5156865;56;1144892;-72
2022/03/23 17:46:24;;;;;;;241.63;92.17;;;;;;;17.01;30.83;101877.17;5166359;55;1144898;-71
2022/03/23 17:51:30;;;;;;;200.53;88.75;;;;;;;16.77;31.33;101877.39;5139967;55;1144954;-72
2022/03/23 17:56:36;;;;;;;156.13;76.93;;;;;;;16.51;31.76;101878.97;5147170;55;1144976;-72
2022/03/23 18:01:42;;;;;;;240.40;104.83;;;;;;;16.29;32.03;101883.52;5150943;54;1144980;-72
2022/03/23 18:06:49;;;;;;;204.43;100.93;;;;;;;16.11;32.58;101884.48;5076449;54;1147066;-72
2022/03/23 18:11:56;;;;;;;224.73;109.33;;;;;;;16.01;32.84;101892.86;5095991;55;1147189;-71
2022/03/23 18:17:01;;;;;;;255.00;123.80;;;;;;;15.78;32.91;101894.16;5139743;55;1147112;-71
2022/03/23 18:22:07;;;;;;;269.20;129.13;;;;;;;15.61;33.36;101902.61;5145163;56;1146923;-71
2022/03/23 18:27:13;;;;;;;223.07;102.37;;;;;;;15.49;33.79;101903.52;5145156;56;1147230;-72
2022/03/23 18:32:19;;;;;;;175.83;75.23;;;;;;;15.35;33.72;101910.38;5148109;55;1147154;-71
2022/03/23 18:37:25;;;;;;;116.13;51.23;;;;;;;15.10;33.51;101908.23;5148531;55;1145123;-71
2022/03/23 18:42:32;;;;;;;106.67;41.50;;;;;;;14.84;32.99;101917.77;5148683;54;1145062;-71
2022/03/23 18:47:40;;;;;;;94.03;41.60;;;;;;;14.64;32.69;101917.42;5144346;55;1145183;-71
2022/03/23 18:52:45;;;;;;;75.40;37.30;;;;;;;14.42;32.26;101922.58;5148981;55;1143081;-72
2022/03/23 18:57:54;;;;;;;63.60;29.27;;;;;;;14.17;32.24;101921.27;5141383;55;1143015;-72
2022/03/23 19:02:59;;;;;;;47.73;26.40;;;;;;;14.05;32.41;101924.31;5149164;55;1143025;-72
2022/03/23 19:08:06;;;;;;;60.07;29.63;;;;;;;13.89;32.58;101928.99;5147566;54;1143294;-70
2022/03/23 19:13:15;;;;;;;43.97;20.97;;;;;;;13.82;32.86;101935.67;5148983;55;1142865;-71
2022/03/23 19:18:20;;;;;;;42.97;19.17;;;;;;;13.74;33.22;101944.19;5145872;55;1143036;-71
2022/03/23 19:23:26;;;;;;;41.20;19.13;;;;;;;13.63;33.22;101944.90;5150638;54;1143420;-71
2022/03/23 19:28:36;;;;;;;37.63;17.33;;;;;;;13.54;33.62;101942.02;5144766;55;1143089;-70
2022/03/23 19:33:43;;;;;;;45.90;17.43;;;;;;;13.43;33.73;101943.23;5149396;55;1142885;-71
2022/03/23 19:38:48;;;;;;;37.00;18.23;;;;;;;13.33;33.96;101950.94;5138694;55;1143117;-70
2022/03/23 19:43:54;;;;;;;42.30;19.63;;;;;;;13.28;34.15;101951.74;5110647;55;1142941;-71
2022/03/23 19:49:00;;;;;;;46.57;19.93;;;;;;;13.23;34.14;101956.50;5143678;55;1142995;-71
2022/03/23 19:54:06;;;;;;;45.20;20.20;;;;;;;13.11;34.21;101959.93;5143443;55;1143140;-71
2022/03/23 19:59:12;;;;;;;47.58;19.82;;;;;;;12.95;34.19;101963.59;5197562;55;1142946;-71
2022/03/23 20:04:18;;;;;;;42.95;20.00;;;;;;;12.85;34.43;101966.44;5134245;55;1144379;-72
2022/03/23 20:09:24;;;;;;;43.23;19.90;;;;;;;12.70;34.63;101974.05;5126315;55;1143041;-71
2022/03/23 20:14:31;;;;;;;43.48;21.48;;;;;;;12.59;34.95;101974.73;5144484;55;1143000;-71
2022/03/23 20:19:37;;;;;;;41.73;19.43;;;;;;;12.44;35.11;101979.67;5142459;55;1143046;-71
2022/03/23 20:24:43;;;;;;;52.03;23.50;;;;;;;12.25;35.53;101979.95;5142557;55;1142997;-71
2022/03/23 20:29:48;;;;;;;56.73;28.93;;;;;;;12.01;36.48;101984.11;5149425;55;1142957;-72
2022/03/23 20:34:54;;;;;;;55.77;25.97;;;;;;;11.72;37.37;101992.91;5145816;55;1143100;-72
2022/03/23 20:40:00;;;;;;;64.20;28.97;;;;;;;11.53;38.38;101997.09;5149729;56;1142878;-72
2022/03/23 20:45:09;;;;;;;49.07;25.47;;;;;;;11.40;39.11;102011.53;5149744;56;1143162;-71
2022/03/23 20:50:15;;;;;;;71.03;29.83;;;;;;;11.28;39.66;102000.31;5150482;56;1143019;-71
2022/03/23 20:55:23;;;;;;;52.70;28.67;;;;;;;11.10;40.20;101998.70;5151534;56;1143115;-71
2022/03/23 21:00:29;;;;;;;51.83;26.40;;;;;;;10.99;40.60;102011.69;5150953;56;1142950;-71
2022/03/23 21:05:36;;;;;;;46.88;25.02;;;;;;;10.95;40.80;102012.33;5151258;56;1143126;-72
2022/03/23 21:10:42;;;;;;;62.40;28.30;;;;;;;10.80;40.89;102019.78;5151057;56;1142917;-71
2022/03/23 21:15:50;;;;;;;65.50;28.60;;;;;;;10.71;41.15;102020.27;5149511;55;1142915;-71
2022/03/23 21:20:55;;;;;;;50.12;27.65;;;;;;;10.58;41.42;102019.61;5151634;56;1143045;-71
2022/03/23 21:26:03;;;;;;;54.33;30.03;;;;;;;10.47;41.70;102019.80;5151461;56;1142869;-71
2022/03/23 21:31:09;;;;;;;62.67;29.87;;;;;;;10.30;42.73;102020.69;5150969;56;1142987;-72
2022/03/23 21:36:16;;;;;;;52.07;27.73;;;;;;;10.06;43.90;102026.77;5150838;56;1142626;-71
2022/03/23 21:41:22;;;;;;;58.23;30.27;;;;;;;9.83;44.72;102028.39;5152868;56;1145925;-71
2022/03/23 21:46:27;;;;;;;56.20;30.05;;;;;;;9.66;45.31;102031.88;5152937;56;1141035;-71
2022/03/23 21:51:33;;;;;;;58.85;30.97;;;;;;;9.59;45.59;102037.55;5153514;56;1138903;-71
2022/03/23 21:56:39;;;;;;;59.10;29.43;;;;;;;9.52;46.10;102042.27;5153081;56;1138873;-71
2022/03/23 22:01:45;;;;;;;54.03;30.33;;;;;;;9.41;46.52;102039.30;5153243;56;1138721;-71
2022/03/23 22:06:51;;;;;;;56.20;29.40;;;;;;;9.31;46.81;102040.69;5153100;56;1138879;-70
2022/03/23 22:11:57;;;;;;;53.60;27.60;;;;;;;9.21;47.18;102042.03;5152741;56;1138730;-71
2022/03/23 22:17:03;;;;;;;55.97;29.77;;;;;;;9.17;47.44;102042.16;5153277;56;1138748;-71
2022/03/23 22:22:09;;;;;;;58.83;29.53;;;;;;;9.11;47.52;102038.98;5154457;56;1138807;-70
2022/03/23 22:27:15;;;;;;;53.30;28.03;;;;;;;9.05;47.70;102040.11;5154968;56;1138955;-71
2022/03/23 22:32:22;;;;;;;49.87;29.70;;;;;;;8.95;47.84;102038.84;5154006;56;1138880;-72
2022/03/23 22:37:31;;;;;;;47.27;27.20;;;;;;;8.92;47.92;102039.44;5153533;56;1138772;-72
2022/03/23 22:42:36;;;;;;;51.18;29.00;;;;;;;8.90;48.17;102032.91;5152653;56;1138639;-71
2022/03/23 22:47:42;;;;;;;57.10;28.23;;;;;;;8.75;48.23;102027.02;5152927;56;1138806;-71
2022/03/23 22:52:49;;;;;;;52.73;29.63;;;;;;;8.58;48.58;102030.89;5153077;56;1138598;-71
2022/03/23 22:57:54;;;;;;;51.90;30.27;;;;;;;8.46;49.04;102032.30;5152742;56;1138694;-71
2022/03/23 23:03:02;;;;;;;55.80;29.17;;;;;;;8.35;49.61;102023.56;5152589;56;1138645;-71
2022/03/23 23:08:08;;;;;;;53.73;30.33;;;;;;;8.26;49.82;102027.02;5153504;56;1138590;-72
2022/03/23 23:13:15;;;;;;;51.18;28.80;;;;;;;8.13;50.15;102030.19;5168820;56;1138703;-72
2022/03/23 23:18:22;;;;;;;62.05;33.55;;;;;;;8.09;50.31;102031.27;5138532;55;1139191;-72
2022/03/23 23:23:28;;;;;;;60.90;31.68;;;;;;;8.17;50.54;102027.42;5169935;55;1138927;-70
2022/03/23 23:28:50;;;;;;;62.27;33.08;;;;;;;8.30;50.51;102032.09;5152541;56;1138882;-71
2022/03/23 23:33:57;;;;;;;68.00;34.93;;;;;;;8.42;50.35;102034.21;5151985;55;1138772;-71
2022/03/23 23:39:03;;;;;;;61.73;34.33;;;;;;;8.50;50.07;102030.39;5152286;55;1139050;-71
2022/03/23 23:44:15;;;;;;;70.40;36.90;;;;;;;8.44;49.86;102029.73;5150876;56;1249722;-71
2022/03/23 23:49:20;;;;;;;66.40;35.53;;;;;;;8.41;49.82;102029.86;5148717;56;1174881;-70
2022/03/23 23:54:27;;;;;;;61.23;34.38;;;;;;;8.35;49.97;102031.47;5142635;56;1138730;-71